sensor_id;sensor_type;location;lat;lon;timestamp;P1;durP1;ratioP1;P2;durP2;ratioP2
13040;SDS011;6587;42.728;23.288;2023-04-24T00:02:11;10.90;;;5.73;;
13040;SDS011;6587;42.728;23.288;2023-04-24T00:04:38;8.73;;;5.63;;
13040;SDS011;6587;42.728;23.288;2023-04-24T00:07:06;9.43;;;5.67;;
13040;SDS011;6587;42.728;23.288;2023-04-24T00:09:32;10.83;;;5.97;;
13040;SDS011;6587;42.728;23.288;2023-04-24T00:12:00;8.93;;;5.70;;
13040;SDS011;6587;42.728;23.288;2023-04-24T00:14:29;9.10;;;5.80;;
13040;SDS011;6587;42.728;23.288;2023-04-24T00:16:56;9.20;;;5.40;;
13040;SDS011;6587;42.728;23.288;2023-04-24T00:19:23;8.60;;;5.43;;
13040;SDS011;6587;42.728;23.288;2023-04-24T00:21:49;7.90;;;5.30;;
13040;SDS011;6587;42.728;23.288;2023-04-24T00:24:16;9.53;;;6.13;;
13040;SDS011;6587;42.728;23.288;2023-04-24T00:26:43;9.27;;;5.43;;
13040;SDS011;6587;42.728;23.288;2023-04-24T00:29:11;7.27;;;5.17;;
13040;SDS011;6587;42.728;23.288;2023-04-24T00:31:38;7.30;;;5.57;;
13040;SDS011;6587;42.728;23.288;2023-04-24T00:34:05;9.87;;;5.90;;
13040;SDS011;6587;42.728;23.288;2023-04-24T00:36:32;7.80;;;5.80;;
13040;SDS011;6587;42.728;23.288;2023-04-24T00:39:00;8.23;;;7.00;;
13040;SDS011;6587;42.728;23.288;2023-04-24T00:41:27;8.97;;;6.40;;
13040;SDS011;6587;42.728;23.288;2023-04-24T00:43:54;13.47;;;8.33;;
13040;SDS011;6587;42.728;23.288;2023-04-24T00:46:23;12.57;;;8.00;;
13040;SDS011;6587;42.728;23.288;2023-04-24T00:48:50;13.93;;;8.47;;
13040;SDS011;6587;42.728;23.288;2023-04-24T00:51:16;13.67;;;8.97;;
13040;SDS011;6587;42.728;23.288;2023-04-24T00:53:43;15.03;;;8.17;;
13040;SDS011;6587;42.728;23.288;2023-04-24T00:56:10;17.50;;;8.27;;
13040;SDS011;6587;42.728;23.288;2023-04-24T00:58:37;12.73;;;7.33;;
13040;SDS011;6587;42.728;23.288;2023-04-24T01:01:04;11.63;;;7.83;;
13040;SDS011;6587;42.728;23.288;2023-04-24T01:03:33;14.43;;;8.47;;
13040;SDS011;6587;42.728;23.288;2023-04-24T01:06:02;15.33;;;9.73;;
13040;SDS011;6587;42.728;23.288;2023-04-24T01:08:29;12.97;;;9.90;;
13040;SDS011;6587;42.728;23.288;2023-04-24T01:10:56;13.47;;;9.70;;
13040;SDS011;6587;42.728;23.288;2023-04-24T01:13:23;12.67;;;10.27;;
13040;SDS011;6587;42.728;23.288;2023-04-24T01:15:50;14.43;;;9.93;;
13040;SDS011;6587;42.728;23.288;2023-04-24T01:18:17;14.60;;;9.70;;
13040;SDS011;6587;42.728;23.288;2023-04-24T01:20:45;15.53;;;10.23;;
13040;SDS011;6587;42.728;23.288;2023-04-24T01:23:14;16.27;;;9.10;;
13040;SDS011;6587;42.728;23.288;2023-04-24T01:25:43;14.90;;;10.07;;
13040;SDS011;6587;42.728;23.288;2023-04-24T01:28:10;16.83;;;9.57;;
13040;SDS011;6587;42.728;23.288;2023-04-24T01:30:37;15.83;;;9.13;;
13040;SDS011;6587;42.728;23.288;2023-04-24T01:33:04;14.80;;;10.23;;
13040;SDS011;6587;42.728;23.288;2023-04-24T01:35:31;14.20;;;10.57;;
13040;SDS011;6587;42.728;23.288;2023-04-24T01:37:59;16.87;;;10.97;;
13040;SDS011;6587;42.728;23.288;2023-04-24T01:40:28;17.17;;;11.07;;
13040;SDS011;6587;42.728;23.288;2023-04-24T01:42:56;15.80;;;11.37;;
13040;SDS011;6587;42.728;23.288;2023-04-24T01:45:23;15.90;;;11.80;;
13040;SDS011;6587;42.728;23.288;2023-04-24T01:47:50;15.27;;;11.23;;
13040;SDS011;6587;42.728;23.288;2023-04-24T01:50:17;17.27;;;11.23;;
13040;SDS011;6587;42.728;23.288;2023-04-24T01:52:44;16.53;;;10.70;;
13040;SDS011;6587;42.728;23.288;2023-04-24T01:55:11;14.63;;;10.93;;
13040;SDS011;6587;42.728;23.288;2023-04-24T01:57:39;16.63;;;11.57;;
13040;SDS011;6587;42.728;23.288;2023-04-24T02:00:06;14.00;;;10.63;;
13040;SDS011;6587;42.728;23.288;2023-04-24T02:02:39;19.37;;;12.20;;
13040;SDS011;6587;42.728;23.288;2023-04-24T02:05:07;17.80;;;12.00;;
13040;SDS011;6587;42.728;23.288;2023-04-24T02:07:35;17.20;;;11.77;;
13040;SDS011;6587;42.728;23.288;2023-04-24T02:10:02;17.37;;;11.77;;
13040;SDS011;6587;42.728;23.288;2023-04-24T02:12:29;17.20;;;11.80;;
13040;SDS011;6587;42.728;23.288;2023-04-24T02:14:57;20.27;;;12.27;;
13040;SDS011;6587;42.728;23.288;2023-04-24T02:17:24;21.63;;;12.27;;
13040;SDS011;6587;42.728;23.288;2023-04-24T02:19:51;18.97;;;12.00;;
13040;SDS011;6587;42.728;23.288;2023-04-24T02:22:17;20.50;;;12.27;;
13040;SDS011;6587;42.728;23.288;2023-04-24T02:24:44;17.37;;;12.50;;
13040;SDS011;6587;42.728;23.288;2023-04-24T02:27:14;19.47;;;12.17;;
13040;SDS011;6587;42.728;23.288;2023-04-24T02:29:41;17.83;;;11.03;;
13040;SDS011;6587;42.728;23.288;2023-04-24T02:32:10;16.37;;;11.47;;
13040;SDS011;6587;42.728;23.288;2023-04-24T02:34:37;16.83;;;11.60;;
13040;SDS011;6587;42.728;23.288;2023-04-24T02:37:04;18.43;;;11.60;;
13040;SDS011;6587;42.728;23.288;2023-04-24T02:39:31;14.77;;;11.17;;
13040;SDS011;6587;42.728;23.288;2023-04-24T02:41:58;15.20;;;11.03;;
13040;SDS011;6587;42.728;23.288;2023-04-24T02:44:25;16.40;;;11.63;;
13040;SDS011;6587;42.728;23.288;2023-04-24T02:46:52;17.30;;;11.00;;
13040;SDS011;6587;42.728;23.288;2023-04-24T02:49:20;16.97;;;11.73;;
13040;SDS011;6587;42.728;23.288;2023-04-24T02:51:47;17.23;;;12.37;;
13040;SDS011;6587;42.728;23.288;2023-04-24T02:54:14;15.77;;;11.90;;
13040;SDS011;6587;42.728;23.288;2023-04-24T02:56:41;18.53;;;11.37;;
13040;SDS011;6587;42.728;23.288;2023-04-24T02:59:08;19.53;;;12.07;;
13040;SDS011;6587;42.728;23.288;2023-04-24T03:01:35;17.50;;;11.70;;
13040;SDS011;6587;42.728;23.288;2023-04-24T03:04:02;16.70;;;11.93;;
13040;SDS011;6587;42.728;23.288;2023-04-24T03:06:31;17.70;;;11.43;;
13040;SDS011;6587;42.728;23.288;2023-04-24T03:08:58;19.97;;;12.70;;
13040;SDS011;6587;42.728;23.288;2023-04-24T03:11:25;20.60;;;12.40;;
13040;SDS011;6587;42.728;23.288;2023-04-24T03:13:51;21.00;;;13.23;;
13040;SDS011;6587;42.728;23.288;2023-04-24T03:16:18;19.77;;;13.87;;
13040;SDS011;6587;42.728;23.288;2023-04-24T03:18:45;25.47;;;15.60;;
13040;SDS011;6587;42.728;23.288;2023-04-24T03:21:13;20.80;;;13.43;;
13040;SDS011;6587;42.728;23.288;2023-04-24T03:23:42;17.80;;;12.93;;
13040;SDS011;6587;42.728;23.288;2023-04-24T03:26:09;17.40;;;12.40;;
13040;SDS011;6587;42.728;23.288;2023-04-24T03:28:42;18.63;;;10.93;;
13040;SDS011;6587;42.728;23.288;2023-04-24T03:31:09;17.10;;;11.47;;
13040;SDS011;6587;42.728;23.288;2023-04-24T03:33:36;15.77;;;11.03;;
13040;SDS011;6587;42.728;23.288;2023-04-24T03:36:03;22.43;;;11.67;;
13040;SDS011;6587;42.728;23.288;2023-04-24T03:38:37;22.97;;;12.70;;
13040;SDS011;6587;42.728;23.288;2023-04-24T03:41:25;20.97;;;11.97;;
13040;SDS011;6587;42.728;23.288;2023-04-24T03:44:02;26.07;;;14.17;;
13040;SDS011;6587;42.728;23.288;2023-04-24T03:46:29;21.87;;;12.33;;
13040;SDS011;6587;42.728;23.288;2023-04-24T03:48:58;25.93;;;13.07;;
13040;SDS011;6587;42.728;23.288;2023-04-24T03:51:29;21.57;;;12.37;;
13040;SDS011;6587;42.728;23.288;2023-04-24T03:54:05;21.87;;;12.73;;
13040;SDS011;6587;42.728;23.288;2023-04-24T03:56:38;26.60;;;13.53;;
13040;SDS011;6587;42.728;23.288;2023-04-24T03:59:05;19.93;;;12.63;;
13040;SDS011;6587;42.728;23.288;2023-04-24T04:01:33;17.60;;;11.83;;
13040;SDS011;6587;42.728;23.288;2023-04-24T04:04:06;22.70;;;12.80;;
13040;SDS011;6587;42.728;23.288;2023-04-24T04:06:35;23.60;;;13.40;;
13040;SDS011;6587;42.728;23.288;2023-04-24T04:09:03;23.33;;;13.50;;
13040;SDS011;6587;42.728;23.288;2023-04-24T04:11:31;25.13;;;14.40;;
13040;SDS011;6587;42.728;23.288;2023-04-24T04:13:59;24.13;;;13.40;;
13040;SDS011;6587;42.728;23.288;2023-04-24T04:16:27;28.20;;;17.37;;
13040;SDS011;6587;42.728;23.288;2023-04-24T04:19:00;26.83;;;16.00;;
13040;SDS011;6587;42.728;23.288;2023-04-24T04:21:28;32.03;;;15.60;;
13040;SDS011;6587;42.728;23.288;2023-04-24T04:24:05;22.07;;;14.70;;
13040;SDS011;6587;42.728;23.288;2023-04-24T04:26:37;28.77;;;16.03;;
13040;SDS011;6587;42.728;23.288;2023-04-24T04:29:08;25.37;;;16.47;;
13040;SDS011;6587;42.728;23.288;2023-04-24T04:31:39;36.30;;;18.63;;
13040;SDS011;6587;42.728;23.288;2023-04-24T04:34:09;28.53;;;19.03;;
13040;SDS011;6587;42.728;23.288;2023-04-24T04:36:37;23.00;;;15.83;;
13040;SDS011;6587;42.728;23.288;2023-04-24T04:39:24;23.97;;;12.80;;
13040;SDS011;6587;42.728;23.288;2023-04-24T04:41:56;26.13;;;14.87;;
13040;SDS011;6587;42.728;23.288;2023-04-24T04:44:30;27.40;;;15.77;;
13040;SDS011;6587;42.728;23.288;2023-04-24T04:46:58;33.70;;;15.73;;
13040;SDS011;6587;42.728;23.288;2023-04-24T04:49:31;27.93;;;14.67;;
13040;SDS011;6587;42.728;23.288;2023-04-24T04:51:58;32.50;;;16.07;;
13040;SDS011;6587;42.728;23.288;2023-04-24T04:54:26;25.17;;;14.87;;
13040;SDS011;6587;42.728;23.288;2023-04-24T04:56:55;24.30;;;13.13;;
13040;SDS011;6587;42.728;23.288;2023-04-24T04:59:23;24.80;;;13.73;;
13040;SDS011;6587;42.728;23.288;2023-04-24T05:01:57;23.73;;;14.37;;
13040;SDS011;6587;42.728;23.288;2023-04-24T05:04:24;21.30;;;13.47;;
13040;SDS011;6587;42.728;23.288;2023-04-24T05:06:51;21.73;;;12.97;;
13040;SDS011;6587;42.728;23.288;2023-04-24T05:09:20;22.37;;;13.07;;
13040;SDS011;6587;42.728;23.288;2023-04-24T05:11:52;21.03;;;12.60;;
13040;SDS011;6587;42.728;23.288;2023-04-24T05:14:21;21.70;;;12.90;;
13040;SDS011;6587;42.728;23.288;2023-04-24T05:16:48;22.03;;;13.50;;
13040;SDS011;6587;42.728;23.288;2023-04-24T05:19:19;24.10;;;13.80;;
13040;SDS011;6587;42.728;23.288;2023-04-24T05:21:45;25.00;;;13.37;;
13040;SDS011;6587;42.728;23.288;2023-04-24T05:24:12;21.27;;;12.73;;
13040;SDS011;6587;42.728;23.288;2023-04-24T05:26:48;20.00;;;12.47;;
13040;SDS011;6587;42.728;23.288;2023-04-24T05:29:19;21.17;;;13.47;;
13040;SDS011;6587;42.728;23.288;2023-04-24T05:31:46;23.43;;;13.07;;
13040;SDS011;6587;42.728;23.288;2023-04-24T05:34:13;25.10;;;14.87;;
13040;SDS011;6587;42.728;23.288;2023-04-24T05:36:45;24.53;;;13.83;;
13040;SDS011;6587;42.728;23.288;2023-04-24T05:39:11;22.00;;;13.87;;
13040;SDS011;6587;42.728;23.288;2023-04-24T05:41:38;24.10;;;13.83;;
13040;SDS011;6587;42.728;23.288;2023-04-24T05:44:05;21.57;;;13.20;;
13040;SDS011;6587;42.728;23.288;2023-04-24T05:46:31;28.93;;;13.93;;
13040;SDS011;6587;42.728;23.288;2023-04-24T05:48:58;22.47;;;13.63;;
13040;SDS011;6587;42.728;23.288;2023-04-24T05:51:24;23.60;;;14.00;;
13040;SDS011;6587;42.728;23.288;2023-04-24T05:53:53;19.20;;;12.73;;
13040;SDS011;6587;42.728;23.288;2023-04-24T05:56:19;19.67;;;12.93;;
13040;SDS011;6587;42.728;23.288;2023-04-24T05:58:48;19.40;;;11.90;;
13040;SDS011;6587;42.728;23.288;2023-04-24T06:01:14;18.47;;;10.83;;
13040;SDS011;6587;42.728;23.288;2023-04-24T06:03:44;19.00;;;11.17;;
13040;SDS011;6587;42.728;23.288;2023-04-24T06:06:10;18.70;;;10.80;;
13040;SDS011;6587;42.728;23.288;2023-04-24T06:08:37;16.43;;;10.40;;
13040;SDS011;6587;42.728;23.288;2023-04-24T06:11:05;16.43;;;10.97;;
13040;SDS011;6587;42.728;23.288;2023-04-24T06:13:32;17.60;;;9.90;;
13040;SDS011;6587;42.728;23.288;2023-04-24T06:16:22;15.33;;;10.07;;
13040;SDS011;6587;42.728;23.288;2023-04-24T06:18:56;18.87;;;11.03;;
13040;SDS011;6587;42.728;23.288;2023-04-24T06:21:23;18.87;;;10.47;;
13040;SDS011;6587;42.728;23.288;2023-04-24T06:23:50;17.10;;;10.17;;
13040;SDS011;6587;42.728;23.288;2023-04-24T06:26:18;18.77;;;12.67;;
13040;SDS011;6587;42.728;23.288;2023-04-24T06:28:46;13.83;;;9.80;;
13040;SDS011;6587;42.728;23.288;2023-04-24T06:31:12;12.73;;;9.40;;
13040;SDS011;6587;42.728;23.288;2023-04-24T06:33:39;16.40;;;9.40;;
13040;SDS011;6587;42.728;23.288;2023-04-24T06:36:06;15.33;;;8.77;;
13040;SDS011;6587;42.728;23.288;2023-04-24T06:38:32;13.80;;;8.90;;
13040;SDS011;6587;42.728;23.288;2023-04-24T06:40:59;13.27;;;8.37;;
13040;SDS011;6587;42.728;23.288;2023-04-24T06:43:27;11.93;;;9.00;;
13040;SDS011;6587;42.728;23.288;2023-04-24T06:45:54;15.23;;;9.20;;
13040;SDS011;6587;42.728;23.288;2023-04-24T06:48:21;12.70;;;8.83;;
13040;SDS011;6587;42.728;23.288;2023-04-24T06:50:47;16.53;;;9.80;;
13040;SDS011;6587;42.728;23.288;2023-04-24T06:53:14;14.33;;;10.23;;
13040;SDS011;6587;42.728;23.288;2023-04-24T06:55:40;13.83;;;9.20;;
13040;SDS011;6587;42.728;23.288;2023-04-24T06:58:08;13.07;;;9.10;;
13040;SDS011;6587;42.728;23.288;2023-04-24T07:00:36;14.63;;;8.90;;
13040;SDS011;6587;42.728;23.288;2023-04-24T07:03:03;14.67;;;9.37;;
13040;SDS011;6587;42.728;23.288;2023-04-24T07:05:30;14.77;;;9.27;;
13040;SDS011;6587;42.728;23.288;2023-04-24T07:07:58;14.17;;;9.03;;
13040;SDS011;6587;42.728;23.288;2023-04-24T07:10:25;13.80;;;9.63;;
13040;SDS011;6587;42.728;23.288;2023-04-24T07:12:53;13.83;;;9.43;;
13040;SDS011;6587;42.728;23.288;2023-04-24T07:15:21;17.50;;;9.40;;
13040;SDS011;6587;42.728;23.288;2023-04-24T07:17:49;16.20;;;9.90;;
13040;SDS011;6587;42.728;23.288;2023-04-24T07:20:16;16.50;;;11.97;;
13040;SDS011;6587;42.728;23.288;2023-04-24T07:22:43;19.23;;;12.20;;
13040;SDS011;6587;42.728;23.288;2023-04-24T07:25:09;19.07;;;11.30;;
13040;SDS011;6587;42.728;23.288;2023-04-24T07:27:36;15.40;;;10.93;;
13040;SDS011;6587;42.728;23.288;2023-04-24T07:30:03;17.90;;;11.70;;
13040;SDS011;6587;42.728;23.288;2023-04-24T07:32:29;18.97;;;11.60;;
13040;SDS011;6587;42.728;23.288;2023-04-24T07:34:57;25.77;;;11.23;;
13040;SDS011;6587;42.728;23.288;2023-04-24T07:37:24;19.47;;;10.67;;
13040;SDS011;6587;42.728;23.288;2023-04-24T07:39:51;16.37;;;10.60;;
13040;SDS011;6587;42.728;23.288;2023-04-24T07:42:17;16.00;;;9.80;;
13040;SDS011;6587;42.728;23.288;2023-04-24T07:44:44;14.10;;;9.83;;
13040;SDS011;6587;42.728;23.288;2023-04-24T07:47:11;18.70;;;9.70;;
13040;SDS011;6587;42.728;23.288;2023-04-24T07:49:40;15.03;;;9.57;;
13040;SDS011;6587;42.728;23.288;2023-04-24T07:52:08;13.43;;;10.50;;
13040;SDS011;6587;42.728;23.288;2023-04-24T07:54:35;12.87;;;10.60;;
13040;SDS011;6587;42.728;23.288;2023-04-24T07:57:02;13.73;;;8.90;;
13040;SDS011;6587;42.728;23.288;2023-04-24T07:59:29;16.23;;;9.47;;
13040;SDS011;6587;42.728;23.288;2023-04-24T08:01:55;11.97;;;7.70;;
13040;SDS011;6587;42.728;23.288;2023-04-24T08:04:22;11.37;;;8.00;;
13040;SDS011;6587;42.728;23.288;2023-04-24T08:06:48;11.93;;;8.27;;
13040;SDS011;6587;42.728;23.288;2023-04-24T08:09:16;10.33;;;7.83;;
13040;SDS011;6587;42.728;23.288;2023-04-24T08:11:43;12.47;;;8.30;;
13040;SDS011;6587;42.728;23.288;2023-04-24T08:14:10;12.70;;;8.23;;
13040;SDS011;6587;42.728;23.288;2023-04-24T08:16:38;13.97;;;8.43;;
13040;SDS011;6587;42.728;23.288;2023-04-24T08:19:04;10.93;;;7.63;;
13040;SDS011;6587;42.728;23.288;2023-04-24T08:21:31;9.53;;;7.53;;
13040;SDS011;6587;42.728;23.288;2023-04-24T08:23:58;13.53;;;8.60;;
13040;SDS011;6587;42.728;23.288;2023-04-24T08:26:26;12.00;;;8.73;;
13040;SDS011;6587;42.728;23.288;2023-04-24T08:28:52;25.17;;;11.13;;
13040;SDS011;6587;42.728;23.288;2023-04-24T08:31:19;11.77;;;8.13;;
13040;SDS011;6587;42.728;23.288;2023-04-24T08:33:45;9.87;;;7.87;;
13040;SDS011;6587;42.728;23.288;2023-04-24T08:36:12;12.40;;;8.30;;
13040;SDS011;6587;42.728;23.288;2023-04-24T08:38:39;12.03;;;8.00;;
13040;SDS011;6587;42.728;23.288;2023-04-24T08:41:05;11.30;;;8.27;;
13040;SDS011;6587;42.728;23.288;2023-04-24T08:43:34;13.97;;;8.17;;
13040;SDS011;6587;42.728;23.288;2023-04-24T08:46:03;10.80;;;8.07;;
13040;SDS011;6587;42.728;23.288;2023-04-24T08:48:30;13.60;;;8.33;;
13040;SDS011;6587;42.728;23.288;2023-04-24T08:50:57;15.83;;;8.67;;
13040;SDS011;6587;42.728;23.288;2023-04-24T08:53:24;13.60;;;8.13;;
13040;SDS011;6587;42.728;23.288;2023-04-24T08:55:51;10.63;;;7.93;;
13040;SDS011;6587;42.728;23.288;2023-04-24T08:58:18;13.43;;;8.67;;
13040;SDS011;6587;42.728;23.288;2023-04-24T09:00:46;13.03;;;8.60;;
13040;SDS011;6587;42.728;23.288;2023-04-24T09:03:13;11.43;;;8.23;;
13040;SDS011;6587;42.728;23.288;2023-04-24T09:05:40;13.43;;;8.27;;
13040;SDS011;6587;42.728;23.288;2023-04-24T09:08:10;12.53;;;8.27;;
13040;SDS011;6587;42.728;23.288;2023-04-24T09:10:39;13.03;;;8.10;;
13040;SDS011;6587;42.728;23.288;2023-04-24T09:13:06;12.40;;;8.33;;
13040;SDS011;6587;42.728;23.288;2023-04-24T09:15:34;14.27;;;8.47;;
13040;SDS011;6587;42.728;23.288;2023-04-24T09:18:02;8.93;;;7.20;;
13040;SDS011;6587;42.728;23.288;2023-04-24T09:20:29;12.60;;;7.97;;
13040;SDS011;6587;42.728;23.288;2023-04-24T09:22:56;18.03;;;7.83;;
13040;SDS011;6587;42.728;23.288;2023-04-24T09:25:24;12.23;;;7.63;;
13040;SDS011;6587;42.728;23.288;2023-04-24T09:27:53;11.17;;;7.67;;
13040;SDS011;6587;42.728;23.288;2023-04-24T09:30:21;9.23;;;7.83;;
13040;SDS011;6587;42.728;23.288;2023-04-24T09:32:48;12.97;;;7.50;;
13040;SDS011;6587;42.728;23.288;2023-04-24T09:35:16;8.23;;;7.03;;
13040;SDS011;6587;42.728;23.288;2023-04-24T09:37:43;10.87;;;7.17;;
13040;SDS011;6587;42.728;23.288;2023-04-24T09:40:14;9.63;;;7.27;;
13040;SDS011;6587;42.728;23.288;2023-04-24T09:42:43;9.60;;;7.07;;
13040;SDS011;6587;42.728;23.288;2023-04-24T09:45:10;9.50;;;7.63;;
13040;SDS011;6587;42.728;23.288;2023-04-24T09:47:37;15.93;;;6.97;;
13040;SDS011;6587;42.728;23.288;2023-04-24T09:50:11;11.70;;;6.67;;
13040;SDS011;6587;42.728;23.288;2023-04-24T09:52:43;7.63;;;6.63;;
13040;SDS011;6587;42.728;23.288;2023-04-24T09:55:16;9.17;;;6.33;;
13040;SDS011;6587;42.728;23.288;2023-04-24T09:57:49;11.63;;;6.87;;
13040;SDS011;6587;42.728;23.288;2023-04-24T10:00:26;12.87;;;6.83;;
13040;SDS011;6587;42.728;23.288;2023-04-24T10:02:56;9.80;;;7.07;;
13040;SDS011;6587;42.728;23.288;2023-04-24T10:05:23;11.13;;;6.50;;
13040;SDS011;6587;42.728;23.288;2023-04-24T10:07:54;9.10;;;6.57;;
13040;SDS011;6587;42.728;23.288;2023-04-24T10:10:22;8.53;;;6.47;;
13040;SDS011;6587;42.728;23.288;2023-04-24T10:12:49;7.05;;;6.35;;
13040;SDS011;6587;42.728;23.288;2023-04-24T10:15:17;10.70;;;6.35;;
13040;SDS011;6587;42.728;23.288;2023-04-24T10:17:46;9.50;;;6.17;;
13040;SDS011;6587;42.728;23.288;2023-04-24T10:20:17;10.40;;;6.70;;
13040;SDS011;6587;42.728;23.288;2023-04-24T10:22:44;10.90;;;6.70;;
13040;SDS011;6587;42.728;23.288;2023-04-24T10:25:14;7.27;;;6.57;;
13040;SDS011;6587;42.728;23.288;2023-04-24T10:27:41;10.10;;;6.30;;
13040;SDS011;6587;42.728;23.288;2023-04-24T10:30:08;10.02;;;5.95;;
13040;SDS011;6587;42.728;23.288;2023-04-24T10:32:35;7.63;;;6.10;;
13040;SDS011;6587;42.728;23.288;2023-04-24T10:35:02;9.48;;;5.90;;
13040;SDS011;6587;42.728;23.288;2023-04-24T10:37:29;10.30;;;6.78;;
13040;SDS011;6587;42.728;23.288;2023-04-24T10:40:01;9.70;;;6.40;;
13040;SDS011;6587;42.728;23.288;2023-04-24T10:42:29;9.90;;;5.82;;
13040;SDS011;6587;42.728;23.288;2023-04-24T10:44:56;7.53;;;5.57;;
13040;SDS011;6587;42.728;23.288;2023-04-24T10:47:23;10.82;;;6.00;;
13040;SDS011;6587;42.728;23.288;2023-04-24T10:49:50;10.45;;;6.00;;
13040;SDS011;6587;42.728;23.288;2023-04-24T10:52:17;9.15;;;5.93;;
13040;SDS011;6587;42.728;23.288;2023-04-24T10:54:44;6.53;;;5.93;;
13040;SDS011;6587;42.728;23.288;2023-04-24T10:57:27;10.93;;;5.60;;
13040;SDS011;6587;42.728;23.288;2023-04-24T11:00:20;9.55;;;5.47;;
13040;SDS011;6587;42.728;23.288;2023-04-24T11:02:47;10.27;;;5.45;;
13040;SDS011;6587;42.728;23.288;2023-04-24T11:05:15;7.88;;;5.55;;
13040;SDS011;6587;42.728;23.288;2023-04-24T11:10:27;7.88;;;5.38;;
13040;SDS011;6587;42.728;23.288;2023-04-24T11:12:53;9.75;;;5.90;;
13040;SDS011;6587;42.728;23.288;2023-04-24T11:15:22;9.38;;;5.80;;
13040;SDS011;6587;42.728;23.288;2023-04-24T11:17:48;10.75;;;6.20;;
13040;SDS011;6587;42.728;23.288;2023-04-24T11:20:16;6.90;;;5.10;;
13040;SDS011;6587;42.728;23.288;2023-04-24T11:22:43;8.43;;;5.50;;
13040;SDS011;6587;42.728;23.288;2023-04-24T11:25:10;8.37;;;5.27;;
13040;SDS011;6587;42.728;23.288;2023-04-24T11:27:38;6.90;;;5.87;;
13040;SDS011;6587;42.728;23.288;2023-04-24T11:30:05;9.10;;;6.03;;
13040;SDS011;6587;42.728;23.288;2023-04-24T11:32:35;8.47;;;6.53;;
13040;SDS011;6587;42.728;23.288;2023-04-24T11:35:03;7.40;;;5.77;;
13040;SDS011;6587;42.728;23.288;2023-04-24T11:37:33;6.00;;;5.40;;
13040;SDS011;6587;42.728;23.288;2023-04-24T11:40:00;7.07;;;5.23;;
13040;SDS011;6587;42.728;23.288;2023-04-24T11:42:27;8.17;;;5.90;;
13040;SDS011;6587;42.728;23.288;2023-04-24T11:44:55;6.60;;;5.63;;
13040;SDS011;6587;42.728;23.288;2023-04-24T11:47:27;6.27;;;5.43;;
13040;SDS011;6587;42.728;23.288;2023-04-24T11:49:55;7.50;;;5.60;;
13040;SDS011;6587;42.728;23.288;2023-04-24T11:52:22;6.80;;;6.20;;
13040;SDS011;6587;42.728;23.288;2023-04-24T11:54:49;5.27;;;4.77;;
13040;SDS011;6587;42.728;23.288;2023-04-24T11:57:16;7.50;;;5.00;;
13040;SDS011;6587;42.728;23.288;2023-04-24T11:59:43;7.33;;;5.47;;
13040;SDS011;6587;42.728;23.288;2023-04-24T12:02:19;6.83;;;5.20;;
13040;SDS011;6587;42.728;23.288;2023-04-24T12:04:46;6.17;;;5.57;;
13040;SDS011;6587;42.728;23.288;2023-04-24T12:07:14;7.63;;;5.80;;
13040;SDS011;6587;42.728;23.288;2023-04-24T12:09:41;8.13;;;5.47;;
13040;SDS011;6587;42.728;23.288;2023-04-24T12:12:08;5.63;;;5.13;;
13040;SDS011;6587;42.728;23.288;2023-04-24T12:14:41;6.23;;;5.10;;
13040;SDS011;6587;42.728;23.288;2023-04-24T12:17:08;7.80;;;5.13;;
13040;SDS011;6587;42.728;23.288;2023-04-24T12:19:35;7.97;;;5.43;;
13040;SDS011;6587;42.728;23.288;2023-04-24T12:22:02;8.33;;;5.67;;
13040;SDS011;6587;42.728;23.288;2023-04-24T12:24:30;7.00;;;5.13;;
13040;SDS011;6587;42.728;23.288;2023-04-24T12:26:57;5.67;;;4.87;;
13040;SDS011;6587;42.728;23.288;2023-04-24T12:29:24;8.10;;;5.20;;
13040;SDS011;6587;42.728;23.288;2023-04-24T12:31:51;8.70;;;5.80;;
13040;SDS011;6587;42.728;23.288;2023-04-24T12:34:18;7.87;;;5.87;;
13040;SDS011;6587;42.728;23.288;2023-04-24T12:36:45;6.83;;;5.30;;
13040;SDS011;6587;42.728;23.288;2023-04-24T12:39:14;5.80;;;5.30;;
13040;SDS011;6587;42.728;23.288;2023-04-24T12:41:50;6.23;;;4.90;;
13040;SDS011;6587;42.728;23.288;2023-04-24T12:44:16;7.93;;;5.57;;
13040;SDS011;6587;42.728;23.288;2023-04-24T12:46:43;9.43;;;5.63;;
13040;SDS011;6587;42.728;23.288;2023-04-24T12:49:10;10.10;;;6.00;;
13040;SDS011;6587;42.728;23.288;2023-04-24T12:51:37;8.30;;;5.97;;
13040;SDS011;6587;42.728;23.288;2023-04-24T12:54:03;6.60;;;5.37;;
13040;SDS011;6587;42.728;23.288;2023-04-24T12:56:30;6.83;;;5.80;;
13040;SDS011;6587;42.728;23.288;2023-04-24T12:58:58;7.60;;;5.50;;
13040;SDS011;6587;42.728;23.288;2023-04-24T13:01:25;7.20;;;5.67;;
13040;SDS011;6587;42.728;23.288;2023-04-24T13:03:52;7.82;;;5.20;;
13040;SDS011;6587;42.728;23.288;2023-04-24T13:06:19;5.25;;;4.70;;
13040;SDS011;6587;42.728;23.288;2023-04-24T13:08:46;5.63;;;4.80;;
13040;SDS011;6587;42.728;23.288;2023-04-24T13:11:13;5.25;;;4.75;;
13040;SDS011;6587;42.728;23.288;2023-04-24T13:13:40;6.47;;;4.80;;
13040;SDS011;6587;42.728;23.288;2023-04-24T13:16:08;6.35;;;5.15;;
13040;SDS011;6587;42.728;23.288;2023-04-24T13:18:34;8.43;;;4.95;;
13040;SDS011;6587;42.728;23.288;2023-04-24T13:21:01;5.85;;;4.50;;
13040;SDS011;6587;42.728;23.288;2023-04-24T13:23:28;5.47;;;4.30;;
13040;SDS011;6587;42.728;23.288;2023-04-24T13:25:54;8.48;;;4.63;;
13040;SDS011;6587;42.728;23.288;2023-04-24T13:28:23;5.63;;;4.68;;
13040;SDS011;6587;42.728;23.288;2023-04-24T13:30:50;4.65;;;4.18;;
13040;SDS011;6587;42.728;23.288;2023-04-24T13:33:18;6.75;;;4.45;;
13040;SDS011;6587;42.728;23.288;2023-04-24T13:35:45;5.20;;;4.65;;
13040;SDS011;6587;42.728;23.288;2023-04-24T13:38:11;5.32;;;4.43;;
13040;SDS011;6587;42.728;23.288;2023-04-24T13:40:38;4.97;;;4.40;;
13040;SDS011;6587;42.728;23.288;2023-04-24T13:43:04;5.40;;;4.55;;
13040;SDS011;6587;42.728;23.288;2023-04-24T13:45:31;9.18;;;5.15;;
13040;SDS011;6587;42.728;23.288;2023-04-24T13:47:57;8.15;;;4.50;;
13040;SDS011;6587;42.728;23.288;2023-04-24T13:50:25;4.70;;;4.30;;
13040;SDS011;6587;42.728;23.288;2023-04-24T13:52:52;5.93;;;4.18;;
13040;SDS011;6587;42.728;23.288;2023-04-24T13:55:19;7.07;;;4.47;;
13040;SDS011;6587;42.728;23.288;2023-04-24T13:57:46;6.55;;;4.25;;
13040;SDS011;6587;42.728;23.288;2023-04-24T14:00:12;5.40;;;4.00;;
13040;SDS011;6587;42.728;23.288;2023-04-24T14:02:40;9.35;;;4.65;;
13040;SDS011;6587;42.728;23.288;2023-04-24T14:05:07;6.30;;;3.88;;
13040;SDS011;6587;42.728;23.288;2023-04-24T14:07:36;4.70;;;4.20;;
13040;SDS011;6587;42.728;23.288;2023-04-24T14:10:02;4.53;;;3.67;;
13040;SDS011;6587;42.728;23.288;2023-04-24T14:12:29;5.00;;;4.20;;
13040;SDS011;6587;42.728;23.288;2023-04-24T14:14:56;4.45;;;4.05;;
13040;SDS011;6587;42.728;23.288;2023-04-24T14:17:22;5.07;;;4.07;;
13040;SDS011;6587;42.728;23.288;2023-04-24T14:19:49;5.60;;;4.13;;
13040;SDS011;6587;42.728;23.288;2023-04-24T14:22:17;5.53;;;4.30;;
13040;SDS011;6587;42.728;23.288;2023-04-24T14:24:45;5.10;;;3.88;;
13040;SDS011;6587;42.728;23.288;2023-04-24T14:27:11;5.80;;;3.90;;
13040;SDS011;6587;42.728;23.288;2023-04-24T14:29:38;5.25;;;3.63;;
13040;SDS011;6587;42.728;23.288;2023-04-24T14:32:04;10.48;;;4.28;;
13040;SDS011;6587;42.728;23.288;2023-04-24T14:34:31;5.25;;;4.22;;
13040;SDS011;6587;42.728;23.288;2023-04-24T14:36:58;5.13;;;4.47;;
13040;SDS011;6587;42.728;23.288;2023-04-24T14:39:24;7.10;;;5.20;;
13040;SDS011;6587;42.728;23.288;2023-04-24T14:41:52;6.68;;;4.75;;